EKKA/KRP METAR and TAF weather

Enter ICAO airport designator
Station Type Date Time Source
EKKA METAR 2021/05/14 22:20 UTC NOAA

EKKA 142220Z AUTO 24008KT 9999 OVC006/// 09/07 Q1003


Station Type Date Time Source
EKKA Decoded METAR 2021/05/14 22:20 UTC NOAA

Karup, Denmark (EKKA) 56-18N 009-07E 53M
May 14, 2021 - 06:20 PM EDT / 2021.05.14 2220 UTC
Wind: from the WSW (240 degrees) at 9 MPH (8 KT):0
Visibility: greater than 7 mile(s):0
Sky conditions: overcast
Temperature: 48 F (9 C)
Dew Point: 44 F (7 C)
Relative Humidity: 87%
Pressure (altimeter): 29.62 in. Hg (1003 hPa)
ob: EKKA 142220Z AUTO 24008KT 9999 OVC006/// 09/07 Q1003
cycle: 22

Station Type Date Time Source
EKKA TAF 2021/05/14 21:31 UTC NOAA

TAF EKKA 142023Z 1421/1521 26008KT 9999 BKN010
TEMPO 1421/1506 3000 BR -RA BKN004
TEMPO 1506/1509 5000 SCT010 BKN015
BECMG 1509/1511 BKN020

Example: see airport list